Time;durP1;ratioP1;P1;durP2;ratioP2;P2;SDS_P1;SDS_P2;PMS_P1;PMS_P2;Temp;Humidity;BMP_temperature;BMP_pressure;BME280_temperature;BME280_humidity;BME280_pressure;Samples;Min_cycle;Max_cycle;Signal;HPM_P1;HPM_P2
2021/08/18 00:00:30;;;;;;;8.00;5.70;;;18.70;99.90;;;;;;5092587;28;20669;-75
2021/08/18 00:02:58;;;;;;;6.05;5.15;;;18.70;99.90;;;;;;5091831;28;20665;-74
2021/08/18 00:05:25;;;;;;;6.75;4.53;;;18.60;99.90;;;;;;5092292;28;20263;-74
2021/08/18 00:07:52;;;;;;;7.22;5.07;;;18.60;99.90;;;;;;5092048;28;20202;-75
2021/08/18 00:10:19;;;;;;;6.53;4.85;;;18.50;99.90;;;;;;5078525;28;20198;-74
2021/08/18 00:12:46;;;;;;;6.88;5.10;;;18.50;99.90;;;;;;5092783;28;20202;-74
2021/08/18 00:15:15;;;;;;;6.20;5.20;;;18.40;99.90;;;;;;5091825;28;20710;-74
2021/08/18 00:17:43;;;;;;;8.15;5.03;;;18.40;99.90;;;;;;5092633;28;20226;-74
2021/08/18 00:20:13;;;;;;;7.82;5.72;;;18.30;99.90;;;;;;5091210;28;20562;-75
2021/08/18 00:22:41;;;;;;;7.38;5.53;;;18.20;99.90;;;;;;5092080;28;20258;-73
2021/08/18 00:25:08;;;;;;;9.30;5.63;;;18.10;99.90;;;;;;5091502;28;20692;-73
2021/08/18 00:27:36;;;;;;;7.63;4.75;;;18.00;99.90;;;;;;5091942;28;20251;-74
2021/08/18 00:30:03;;;;;;;6.82;4.97;;;18.00;99.90;;;;;;5091536;28;20657;-73
2021/08/18 00:32:30;;;;;;;6.03;4.53;;;18.00;99.90;;;;;;5091723;28;20205;-74
2021/08/18 00:34:57;;;;;;;7.68;4.95;;;18.00;99.90;;;;;;5091267;28;20213;-73
2021/08/18 00:37:25;;;;;;;7.70;5.13;;;17.80;99.90;;;;;;5091483;28;20549;-74
2021/08/18 00:39:52;;;;;;;6.22;5.60;;;17.80;99.90;;;;;;5091529;28;20210;-72
2021/08/18 00:42:20;;;;;;;6.32;4.90;;;17.70;99.90;;;;;;5091535;28;20205;-75
2021/08/18 00:44:48;;;;;;;7.82;4.88;;;17.70;99.90;;;;;;5091859;28;20583;-73
2021/08/18 00:47:14;;;;;;;7.05;4.95;;;17.60;99.90;;;;;;5091651;28;20669;-75
2021/08/18 00:49:41;;;;;;;8.27;5.32;;;17.50;99.90;;;;;;5091546;28;20669;-75
2021/08/18 00:52:08;;;;;;;10.52;4.60;;;17.40;99.90;;;;;;5091400;28;20671;-74
2021/08/18 00:54:37;;;;;;;8.65;5.30;;;17.50;99.90;;;;;;5091334;28;20232;-75
2021/08/18 00:57:06;;;;;;;6.78;4.78;;;17.50;99.90;;;;;;5091006;28;20733;-73
2021/08/18 00:59:34;;;;;;;5.30;4.30;;;17.50;99.90;;;;;;5091333;28;20237;-75
2021/08/18 01:02:03;;;;;;;6.65;5.57;;;17.40;99.90;;;;;;5090657;28;20206;-74
2021/08/18 01:04:30;;;;;;;7.22;5.28;;;17.30;99.90;;;;;;5091364;28;20274;-73
2021/08/18 01:06:57;;;;;;;7.22;5.03;;;17.50;99.90;;;;;;5091097;28;20201;-76
2021/08/18 01:09:23;;;;;;;7.53;5.38;;;17.40;99.90;;;;;;5088761;28;20262;-73
2021/08/18 01:11:52;;;;;;;7.43;5.43;;;17.30;99.90;;;;;;5082009;28;20202;-75
2021/08/18 01:14:21;;;;;;;7.60;5.60;;;17.30;99.90;;;;;;5090936;28;20209;-73
2021/08/18 01:16:49;;;;;;;6.05;4.88;;;17.40;99.90;;;;;;5090956;28;20266;-72
2021/08/18 01:19:19;;;;;;;6.60;5.30;;;17.50;99.90;;;;;;5090931;28;20239;-75
2021/08/18 01:21:48;;;;;;;7.38;5.30;;;17.50;99.90;;;;;;5091626;28;20254;-75
2021/08/18 01:24:17;;;;;;;8.80;4.88;;;17.50;99.90;;;;;;5091129;28;20209;-75
2021/08/18 01:26:45;;;;;;;6.60;4.60;;;17.40;99.90;;;;;;5090997;28;20233;-74
2021/08/18 01:29:13;;;;;;;7.22;4.65;;;17.40;99.90;;;;;;5090381;28;20201;-75
2021/08/18 01:31:42;;;;;;;7.60;4.32;;;17.30;99.90;;;;;;5090625;28;20205;-75
2021/08/18 01:34:09;;;;;;;6.60;4.63;;;17.30;99.90;;;;;;5089665;28;21046;-75
2021/08/18 01:36:36;;;;;;;6.03;4.07;;;17.30;99.90;;;;;;5090906;28;20232;-75
2021/08/18 01:39:03;;;;;;;5.60;4.88;;;17.50;99.90;;;;;;5090403;28;20233;-75
2021/08/18 01:41:30;;;;;;;8.40;4.68;;;17.40;99.90;;;;;;5090815;28;20209;-74
2021/08/18 01:43:57;;;;;;;8.02;4.68;;;17.30;99.90;;;;;;5089995;28;20742;-73
2021/08/18 01:46:26;;;;;;;5.20;4.55;;;17.20;99.90;;;;;;5090170;28;20600;-74
2021/08/18 01:48:53;;;;;;;8.80;5.53;;;17.20;99.90;;;;;;5090195;28;20636;-75
2021/08/18 01:51:21;;;;;;;5.40;4.75;;;17.00;99.90;;;;;;5090269;28;20205;-73
2021/08/18 01:53:48;;;;;;;8.88;4.78;;;17.00;99.90;;;;;;5090476;28;20594;-73
2021/08/18 01:56:17;;;;;;;7.20;4.43;;;17.00;99.90;;;;;;5090444;28;20240;-75
2021/08/18 01:58:46;;;;;;;5.28;4.80;;;16.90;99.90;;;;;;5090787;28;20680;-73
2021/08/18 02:01:14;;;;;;;7.78;4.95;;;16.90;99.90;;;;;;5090140;28;20258;-75
2021/08/18 02:03:42;;;;;;;6.68;5.40;;;16.90;99.90;;;;;;5090729;28;20258;-74
2021/08/18 02:06:09;;;;;;;5.63;4.70;;;16.90;99.90;;;;;;5090166;28;20259;-75
2021/08/18 02:08:36;;;;;;;9.13;5.35;;;17.00;99.90;;;;;;5090308;28;20213;-74
2021/08/18 02:11:03;;;;;;;7.80;4.20;;;17.10;99.90;;;;;;5090271;28;20254;-75
2021/08/18 02:13:31;;;;;;;7.28;5.20;;;17.10;99.90;;;;;;5090372;28;20235;-73
2021/08/18 02:15:58;;;;;;;8.13;4.28;;;16.90;99.90;;;;;;5090114;28;20262;-74
2021/08/18 02:18:25;;;;;;;8.55;4.97;;;16.80;99.90;;;;;;5090123;28;20237;-73
2021/08/18 02:20:53;;;;;;;6.28;5.00;;;16.70;99.90;;;;;;5089822;28;20205;-75
2021/08/18 02:23:21;;;;;;;6.32;4.97;;;16.70;99.90;;;;;;5090155;28;20258;-75
2021/08/18 02:25:48;;;;;;;8.27;5.20;;;16.80;99.90;;;;;;5090346;28;20197;-73
2021/08/18 02:28:16;;;;;;;15.68;6.40;;;17.00;99.90;;;;;;5090626;28;20707;-73
2021/08/18 02:30:43;;;;;;;6.90;4.85;;;17.10;99.90;;;;;;5090547;28;20619;-74
2021/08/18 02:33:10;;;;;;;7.75;5.28;;;17.10;99.90;;;;;;5089735;28;20206;-74
2021/08/18 02:35:38;;;;;;;5.63;4.22;;;17.10;99.90;;;;;;5089999;28;20217;-74
2021/08/18 02:38:07;;;;;;;7.25;4.53;;;17.10;99.90;;;;;;5089904;28;20636;-73
2021/08/18 02:40:35;;;;;;;7.28;4.57;;;17.00;99.90;;;;;;5090112;28;20210;-74
2021/08/18 02:43:02;;;;;;;6.35;4.93;;;16.80;99.90;;;;;;5089654;28;20669;-75
2021/08/18 02:45:31;;;;;;;7.22;4.43;;;16.90;99.90;;;;;;5091116;28;20262;-75
2021/08/18 02:47:58;;;;;;;4.97;4.28;;;16.90;99.90;;;;;;5093799;28;20201;-74
2021/08/18 02:50:28;;;;;;;6.22;4.18;;;16.80;99.90;;;;;;5093750;28;20201;-74
2021/08/18 02:52:55;;;;;;;6.28;4.95;;;16.90;99.90;;;;;;5093720;28;20202;-73
2021/08/18 02:55:24;;;;;;;7.35;4.97;;;16.90;99.90;;;;;;5093860;28;20750;-74
2021/08/18 02:57:51;;;;;;;7.53;5.40;;;16.90;99.90;;;;;;5093156;28;20209;-72
2021/08/18 03:00:19;;;;;;;9.93;5.10;;;16.90;99.90;;;;;;5093605;28;20225;-74
2021/08/18 03:02:46;;;;;;;9.82;5.10;;;16.80;99.90;;;;;;5093556;28;20209;-73
2021/08/18 03:05:14;;;;;;;5.28;4.70;;;17.00;99.90;;;;;;5093581;28;20231;-75
2021/08/18 03:07:41;;;;;;;6.05;4.85;;;17.10;99.90;;;;;;5093574;28;20296;-73
2021/08/18 03:10:09;;;;;;;6.75;4.72;;;17.10;99.90;;;;;;5093349;28;20209;-75
2021/08/18 03:12:38;;;;;;;5.30;4.47;;;17.20;99.90;;;;;;5093279;28;20670;-74
2021/08/18 03:15:06;;;;;;;5.43;4.53;;;17.10;99.90;;;;;;5092642;28;20624;-75
2021/08/18 03:17:34;;;;;;;4.97;4.47;;;17.00;99.90;;;;;;5093350;28;20267;-72
2021/08/18 03:20:00;;;;;;;10.45;4.65;;;17.00;99.90;;;;;;5093093;28;20229;-76
2021/08/18 03:22:27;;;;;;;5.68;5.05;;;17.00;99.90;;;;;;5093536;28;20256;-73
2021/08/18 03:24:54;;;;;;;7.63;4.72;;;16.90;99.90;;;;;;5092866;28;20202;-74
2021/08/18 03:27:22;;;;;;;5.28;4.65;;;16.90;99.90;;;;;;5092872;28;20212;-74
2021/08/18 03:29:52;;;;;;;5.57;4.60;;;16.90;99.90;;;;;;5092543;28;20279;-73
2021/08/18 03:32:19;;;;;;;7.20;4.78;;;17.00;99.90;;;;;;5092752;28;20726;-75
2021/08/18 03:34:46;;;;;;;6.10;4.90;;;17.00;99.90;;;;;;5093616;28;20209;-74
2021/08/18 03:37:12;;;;;;;4.72;4.03;;;17.00;99.90;;;;;;5092862;28;20270;-73
2021/08/18 03:39:39;;;;;;;5.88;4.97;;;17.00;99.90;;;;;;5093088;28;20362;-75
2021/08/18 03:42:07;;;;;;;8.23;4.72;;;17.00;99.90;;;;;;5092335;28;20988;-73
2021/08/18 03:44:34;;;;;;;11.60;6.70;;;16.90;99.90;;;;;;5092869;28;20266;-75
2021/08/18 03:47:04;;;;;;;8.55;5.18;;;16.80;99.90;;;;;;5092463;28;20255;-75
2021/08/18 03:49:31;;;;;;;7.57;5.05;;;16.80;99.90;;;;;;5092432;28;20206;-73
2021/08/18 03:51:58;;;;;;;6.13;4.75;;;16.80;99.90;;;;;;5092602;28;20266;-73
2021/08/18 03:54:25;;;;;;;6.57;5.05;;;16.80;99.90;;;;;;5092607;28;20201;-74
2021/08/18 03:56:52;;;;;;;7.13;4.93;;;16.90;99.90;;;;;;5091501;28;20209;-75
2021/08/18 03:59:19;;;;;;;6.55;4.38;;;16.80;99.90;;;;;;5092444;28;20229;-74
2021/08/18 04:01:46;;;;;;;5.40;4.30;;;16.80;99.90;;;;;;5093072;28;20206;-73
2021/08/18 04:04:14;;;;;;;5.75;4.55;;;16.80;99.90;;;;;;5092451;28;20673;-73
2021/08/18 04:06:41;;;;;;;5.53;4.97;;;16.90;99.90;;;;;;5092594;28;20213;-74
2021/08/18 04:09:08;;;;;;;6.30;4.75;;;16.90;99.90;;;;;;5092162;28;20217;-74
2021/08/18 04:11:35;;;;;;;7.90;5.38;;;17.00;99.90;;;;;;5092098;28;20259;-73
2021/08/18 04:14:02;;;;;;;9.32;4.70;;;17.00;99.90;;;;;;5092179;28;20209;-75
2021/08/18 04:16:29;;;;;;;5.65;5.15;;;17.00;99.90;;;;;;5092312;28;20209;-75
2021/08/18 04:18:56;;;;;;;5.70;4.20;;;16.90;99.90;;;;;;5091378;28;20232;-73
2021/08/18 04:21:24;;;;;;;6.00;4.18;;;16.80;99.90;;;;;;5092078;28;20668;-75
2021/08/18 04:23:51;;;;;;;5.93;4.75;;;16.80;99.90;;;;;;5091600;28;20254;-75
2021/08/18 04:26:18;;;;;;;5.95;3.90;;;16.90;99.90;;;;;;5091727;28;20201;-74
2021/08/18 04:28:45;;;;;;;5.10;4.25;;;16.90;99.90;;;;;;5092081;28;20625;-75
2021/08/18 04:31:12;;;;;;;9.80;5.03;;;16.70;99.90;;;;;;5092140;28;20628;-74
2021/08/18 04:33:39;;;;;;;6.15;4.60;;;16.70;99.90;;;;;;5091936;28;20265;-74
2021/08/18 04:36:06;;;;;;;5.78;3.78;;;17.00;99.90;;;;;;5091703;28;20205;-74
2021/08/18 04:38:34;;;;;;;8.88;4.35;;;17.00;99.90;;;;;;5091618;28;20209;-75
2021/08/18 04:41:01;;;;;;;4.70;3.92;;;17.00;99.90;;;;;;5091174;28;20205;-75
2021/08/18 04:43:28;;;;;;;5.15;4.22;;;16.90;99.90;;;;;;5091924;28;20270;-75
2021/08/18 04:45:55;;;;;;;5.70;4.00;;;16.90;99.90;;;;;;5091238;28;20267;-75
2021/08/18 04:48:22;;;;;;;6.80;4.30;;;16.90;99.90;;;;;;5091747;28;20201;-76
2021/08/18 04:50:49;;;;;;;6.47;4.22;;;16.80;99.90;;;;;;5090870;28;20214;-74
2021/08/18 04:53:17;;;;;;;8.00;4.53;;;16.80;99.90;;;;;;5091800;28;20247;-75
2021/08/18 04:55:45;;;;;;;9.57;4.07;;;16.90;99.90;;;;;;5091475;28;20213;-75
2021/08/18 04:58:12;;;;;;;6.00;5.05;;;16.80;99.90;;;;;;5091467;28;20212;-75
2021/08/18 05:00:39;;;;;;;5.20;4.22;;;16.80;99.90;;;;;;5091177;28;20229;-75
2021/08/18 05:03:06;;;;;;;6.90;5.13;;;16.70;99.90;;;;;;5091032;28;20626;-74
2021/08/18 05:05:33;;;;;;;4.88;4.38;;;16.90;99.90;;;;;;5091158;28;20201;-75
2021/08/18 05:08:01;;;;;;;6.13;4.05;;;16.90;99.90;;;;;;5090120;28;20246;-73
2021/08/18 05:10:28;;;;;;;9.35;4.63;;;17.00;99.90;;;;;;5090889;28;20206;-75
2021/08/18 05:12:57;;;;;;;6.53;4.75;;;16.80;99.90;;;;;;5091198;28;20266;-74
2021/08/18 05:15:24;;;;;;;10.95;6.18;;;16.80;99.90;;;;;;5091040;28;20258;-74
2021/08/18 05:17:51;;;;;;;6.78;4.55;;;16.90;99.90;;;;;;5090815;28;20209;-75
2021/08/18 05:20:18;;;;;;;6.22;4.70;;;16.90;99.90;;;;;;5090796;28;20240;-73
2021/08/18 05:22:45;;;;;;;6.85;4.85;;;16.90;99.90;;;;;;5091250;28;20209;-72
2021/08/18 05:25:13;;;;;;;5.78;4.35;;;16.90;99.90;;;;;;5090415;28;20263;-74
2021/08/18 05:27:41;;;;;;;5.25;4.30;;;16.90;99.90;;;;;;5090656;28;20266;-74
2021/08/18 05:30:11;;;;;;;6.55;4.63;;;17.00;99.90;;;;;;5090799;28;20681;-75
2021/08/18 05:32:39;;;;;;;8.27;5.10;;;17.00;99.90;;;;;;5090491;28;20213;-74
2021/08/18 05:35:10;;;;;;;6.43;4.05;;;17.00;99.90;;;;;;5090746;28;20209;-73
2021/08/18 05:37:37;;;;;;;5.78;4.70;;;17.10;99.90;;;;;;5090485;28;20289;-75
2021/08/18 05:40:05;;;;;;;6.25;4.22;;;17.20;99.90;;;;;;5090696;28;20229;-74
2021/08/18 05:42:32;;;;;;;6.13;4.78;;;17.20;99.90;;;;;;5090295;28;20632;-75
2021/08/18 05:45:01;;;;;;;8.48;4.78;;;17.20;99.90;;;;;;5090757;28;20638;-74
2021/08/18 05:47:29;;;;;;;5.57;3.83;;;17.30;99.90;;;;;;5089967;28;20205;-73
2021/08/18 05:49:56;;;;;;;7.32;4.30;;;17.20;99.90;;;;;;5091061;28;20209;-74
2021/08/18 05:52:23;;;;;;;5.88;4.72;;;17.20;99.90;;;;;;5090099;28;20262;-72
2021/08/18 05:54:50;;;;;;;6.22;5.05;;;17.00;99.90;;;;;;5090376;28;20201;-75
2021/08/18 05:57:17;;;;;;;4.70;4.13;;;17.10;99.90;;;;;;5090723;28;20734;-74
2021/08/18 05:59:44;;;;;;;5.55;3.83;;;17.10;99.90;;;;;;5090214;28;20225;-74
2021/08/18 06:02:11;;;;;;;7.85;4.93;;;17.20;99.90;;;;;;5090470;28;20259;-74
2021/08/18 06:04:39;;;;;;;5.07;4.57;;;17.30;99.90;;;;;;5089895;28;20206;-74
2021/08/18 06:07:06;;;;;;;6.65;4.43;;;17.20;99.90;;;;;;5090827;28;20255;-75
2021/08/18 06:09:33;;;;;;;5.97;5.00;;;17.30;99.90;;;;;;5089789;28;20258;-73
2021/08/18 06:12:00;;;;;;;5.47;3.95;;;17.20;99.90;;;;;;5090616;28;20206;-75
2021/08/18 06:14:27;;;;;;;5.25;4.18;;;17.20;99.90;;;;;;5089725;28;20300;-74
2021/08/18 06:16:54;;;;;;;6.40;5.13;;;17.30;99.90;;;;;;5090150;28;20202;-74
2021/08/18 06:19:21;;;;;;;8.52;4.03;;;17.40;99.90;;;;;;5091245;28;20201;-74
2021/08/18 06:21:51;;;;;;;7.00;4.50;;;17.40;99.90;;;;;;5094859;28;20209;-74
2021/08/18 06:24:27;;;;;;;4.90;3.88;;;17.40;99.90;;;;;;5094694;28;20224;-73
2021/08/18 06:26:54;;;;;;;6.20;3.75;;;17.30;99.90;;;;;;5094058;28;20209;-75
2021/08/18 06:29:21;;;;;;;4.90;4.28;;;17.40;99.90;;;;;;5094637;28;20217;-74
2021/08/18 06:31:49;;;;;;;9.07;4.13;;;17.60;99.90;;;;;;5094683;28;20293;-75
2021/08/18 06:34:18;;;;;;;5.65;4.22;;;17.70;99.90;;;;;;5094360;28;20288;-75
2021/08/18 06:36:45;;;;;;;6.97;5.00;;;17.70;99.90;;;;;;5094056;28;20266;-76
2021/08/18 06:39:13;;;;;;;5.60;4.30;;;17.70;99.90;;;;;;5093669;28;20205;-75
2021/08/18 06:41:40;;;;;;;6.78;5.10;;;17.70;99.90;;;;;;5093546;28;20263;-75
2021/08/18 06:44:07;;;;;;;5.65;3.90;;;17.80;99.90;;;;;;5093792;28;20282;-75
2021/08/18 06:46:34;;;;;;;9.75;4.38;;;17.80;99.90;;;;;;5093616;28;20677;-76
2021/08/18 06:49:01;;;;;;;6.30;4.15;;;17.80;99.90;;;;;;5094033;28;20202;-74
2021/08/18 06:51:29;;;;;;;5.75;3.95;;;17.80;99.90;;;;;;5093505;28;20266;-76
2021/08/18 06:53:56;;;;;;;5.25;4.07;;;18.00;99.90;;;;;;5093707;28;20819;-74
2021/08/18 06:56:24;;;;;;;6.80;3.67;;;18.20;99.90;;;;;;5093904;28;20231;-73
2021/08/18 06:58:51;;;;;;;4.15;3.83;;;18.30;99.90;;;;;;5094145;28;20362;-73
2021/08/18 07:01:18;;;;;;;6.60;4.55;;;18.40;99.90;;;;;;5093860;28;20233;-76
2021/08/18 07:03:45;;;;;;;4.63;4.03;;;18.50;99.90;;;;;;5093473;28;20205;-76
2021/08/18 07:06:12;;;;;;;3.58;3.28;;;18.50;99.90;;;;;;5093449;28;20213;-75
2021/08/18 07:08:39;;;;;;;7.63;4.63;;;18.50;99.90;;;;;;5093325;28;20205;-73
2021/08/18 07:11:06;;;;;;;5.00;4.50;;;18.70;99.90;;;;;;5093567;28;20210;-75
2021/08/18 07:13:34;;;;;;;10.95;4.38;;;18.90;99.90;;;;;;5093389;28;20240;-73
2021/08/18 07:16:01;;;;;;;3.28;2.95;;;19.00;99.90;;;;;;5093452;28;20209;-75
2021/08/18 07:18:28;;;;;;;5.78;3.63;;;18.90;99.90;;;;;;5092721;28;20205;-74
2021/08/18 07:20:55;;;;;;;4.53;3.92;;;18.80;99.90;;;;;;5093181;28;20225;-75
2021/08/18 07:23:22;;;;;;;6.15;3.28;;;19.00;99.90;;;;;;5093151;28;20213;-73
2021/08/18 07:25:49;;;;;;;5.85;3.83;;;19.10;99.90;;;;;;5093757;28;20254;-75
2021/08/18 07:28:17;;;;;;;4.82;3.67;;;19.30;99.90;;;;;;5093657;28;20300;-74
2021/08/18 07:30:45;;;;;;;7.90;5.15;;;19.10;99.90;;;;;;5092276;28;20251;-76
2021/08/18 07:33:12;;;;;;;6.13;4.20;;;19.10;99.90;;;;;;5092673;28;20672;-73
2021/08/18 07:35:39;;;;;;;5.88;4.22;;;19.20;99.90;;;;;;5092242;28;20612;-74
2021/08/18 07:38:06;;;;;;;4.95;3.75;;;19.30;99.90;;;;;;5093259;28;20209;-74
2021/08/18 07:40:33;;;;;;;4.70;4.22;;;19.40;99.90;;;;;;5092474;28;20229;-76
2021/08/18 07:43:00;;;;;;;6.65;3.35;;;19.40;99.90;;;;;;5092951;28;20262;-75
2021/08/18 07:45:28;;;;;;;5.97;3.95;;;19.70;99.90;;;;;;5092669;28;20262;-75
2021/08/18 07:47:57;;;;;;;6.90;5.13;;;19.90;99.90;;;;;;5092719;28;20204;-75
2021/08/18 07:50:24;;;;;;;6.80;4.63;;;19.80;99.90;;;;;;5091966;28;20630;-75
2021/08/18 07:52:51;;;;;;;6.22;4.15;;;19.80;99.90;;;;;;5092573;28;20618;-75
2021/08/18 07:55:18;;;;;;;5.38;3.50;;;20.10;99.90;;;;;;5093012;28;20201;-75
2021/08/18 07:57:44;;;;;;;4.95;3.67;;;20.20;99.90;;;;;;5092006;28;20243;-75
2021/08/18 08:00:12;;;;;;;6.32;3.90;;;20.30;99.90;;;;;;5092749;28;20236;-74
2021/08/18 08:02:44;;;;;;;4.57;3.40;;;20.10;99.90;;;;;;5091764;28;20624;-75
2021/08/18 08:05:14;;;;;;;6.38;4.18;;;19.90;99.90;;;;;;5092358;28;20216;-74
2021/08/18 08:07:42;;;;;;;9.85;4.18;;;20.20;99.90;;;;;;5091734;28;20211;-73
2021/08/18 08:10:10;;;;;;;3.92;3.53;;;20.50;99.90;;;;;;5092345;28;20648;-75
2021/08/18 08:12:38;;;;;;;3.22;2.72;;;20.70;99.90;;;;;;5091850;28;20209;-76
2021/08/18 08:15:07;;;;;;;4.95;3.97;;;20.20;99.90;;;;;;5091914;28;20205;-74
2021/08/18 08:17:35;;;;;;;7.40;4.03;;;20.70;99.90;;;;;;5091861;28;20254;-74
2021/08/18 08:20:02;;;;;;;6.90;4.32;;;20.90;99.90;;;;;;5091762;28;20205;-74
2021/08/18 08:22:30;;;;;;;4.88;3.28;;;20.90;99.90;;;;;;5091903;28;20209;-74
2021/08/18 08:24:57;;;;;;;8.98;4.32;;;20.90;99.90;;;;;;5092260;28;20266;-75
2021/08/18 08:27:24;;;;;;;6.15;4.15;;;20.70;99.90;;;;;;5091493;28;20206;-72
2021/08/18 08:29:51;;;;;;;5.10;3.60;;;20.70;99.90;;;;;;5092074;28;20202;-72
2021/08/18 08:32:18;;;;;;;5.05;4.10;;;20.80;99.90;;;;;;5092229;28;20209;-76
2021/08/18 08:34:45;;;;;;;7.80;4.47;;;20.90;99.90;;;;;;5091613;28;20213;-75
2021/08/18 08:37:12;;;;;;;4.00;3.60;;;20.90;99.90;;;;;;5091955;28;20202;-76
2021/08/18 08:39:41;;;;;;;5.20;3.13;;;20.60;99.90;;;;;;5091618;28;20205;-74
2021/08/18 08:42:08;;;;;;;5.03;3.50;;;20.40;99.90;;;;;;5091616;28;20289;-75
2021/08/18 08:44:36;;;;;;;3.78;2.95;;;20.30;99.90;;;;;;5091263;28;20221;-76
2021/08/18 08:47:04;;;;;;;3.67;3.38;;;21.00;99.90;;;;;;5091993;28;20210;-75
2021/08/18 08:49:31;;;;;;;5.25;3.30;;;21.60;99.90;;;;;;5091094;28;20258;-74
2021/08/18 08:51:58;;;;;;;4.85;3.60;;;21.60;99.90;;;;;;5091499;28;20205;-75
2021/08/18 08:54:25;;;;;;;3.38;3.03;;;21.30;99.90;;;;;;5091039;28;20210;-75
2021/08/18 08:56:53;;;;;;;4.45;3.28;;;21.40;99.90;;;;;;5091456;28;20250;-74
2021/08/18 08:59:20;;;;;;;4.65;3.33;;;21.40;99.90;;;;;;5091704;28;20209;-76
2021/08/18 09:02:01;;;;;;;3.13;2.90;;;21.50;99.90;;;;;;5091622;28;20524;-76
2021/08/18 09:04:29;;;;;;;5.70;4.07;;;22.20;99.90;;;;;;5091213;28;20300;-75
2021/08/18 09:07:07;;;;;;;4.25;3.22;;;23.10;99.90;;;;;;5091365;28;20674;-76
2021/08/18 09:09:35;;;;;;;3.78;3.42;;;23.00;99.90;;;;;;5090543;28;20205;-75
2021/08/18 09:12:09;;;;;;;5.90;3.53;;;23.10;99.90;;;;;;5091507;28;20201;-75
2021/08/18 09:14:36;;;;;;;4.03;3.55;;;22.10;99.90;;;;;;5090455;28;20668;-73
2021/08/18 09:17:23;;;;;;;4.82;3.75;;;21.90;99.90;;;;;;5090963;28;20208;-76
2021/08/18 09:19:58;;;;;;;4.10;3.30;;;22.50;99.90;;;;;;5091023;28;20209;-74
2021/08/18 09:22:25;;;;;;;5.65;3.83;;;23.40;99.90;;;;;;5090357;28;20227;-76
2021/08/18 09:25:16;;;;;;;5.00;3.95;;;23.00;99.90;;;;;;5091330;28;20210;-73
2021/08/18 09:27:46;;;;;;;4.05;3.65;;;22.50;99.90;;;;;;5090597;28;21094;-76
2021/08/18 09:30:22;;;;;;;4.45;3.58;;;22.70;99.90;;;;;;5090888;28;20214;-74
2021/08/18 09:32:50;;;;;;;6.45;3.75;;;23.50;99.90;;;;;;5091147;28;20209;-76
2021/08/18 09:35:19;;;;;;;3.85;3.28;;;24.80;99.90;;;;;;5091408;28;20209;-76
2021/08/18 09:37:56;;;;;;;4.22;3.83;;;28.70;99.90;;;;;;5090847;28;20198;-76
2021/08/18 09:40:24;;;;;;;4.00;3.35;;;31.60;99.90;;;;;;5090462;28;20632;-73
2021/08/18 09:42:54;;;;;;;5.43;4.00;;;33.00;99.90;;;;;;5076366;28;20627;-73
2021/08/18 09:45:24;;;;;;;5.28;3.33;;;28.00;99.90;;;;;;5090720;28;20202;-74
2021/08/18 09:48:00;;;;;;;4.05;3.33;;;30.70;99.90;;;;;;5090829;28;20254;-75
2021/08/18 09:50:30;;;;;;;4.32;3.75;;;33.00;99.90;;;;;;5090549;28;20258;-77
2021/08/18 09:53:06;;;;;;;7.10;3.58;;;34.90;99.90;;;;;;5090297;28;20257;-74
2021/08/18 09:55:33;;;;;;;4.32;3.83;;;31.40;99.90;;;;;;5089727;28;20208;-77
2021/08/18 09:58:02;;;;;;;3.30;3.00;;;31.60;99.90;;;;;;5090240;28;20726;-76
2021/08/18 10:00:31;;;;;;;3.53;3.20;;;29.40;99.90;;;;;;5089829;28;20236;-77
2021/08/18 10:02:58;;;;;;;5.03;3.75;;;28.60;99.90;;;;;;5090461;28;20201;-80
2021/08/18 10:05:29;;;;;;;4.00;3.35;;;30.10;99.90;;;;;;5090135;28;20668;-75
2021/08/18 10:07:58;;;;;;;5.82;4.20;;;28.80;99.90;;;;;;5090476;28;20196;-81
2021/08/18 10:10:25;;;;;;;5.53;3.78;;;31.30;99.90;;;;;;5089086;28;20304;-79
2021/08/18 10:12:53;;;;;;;4.53;3.78;;;31.50;99.90;;;;;;5089083;28;20687;-74
2021/08/18 10:15:21;;;;;;;5.10;3.80;;;31.70;99.90;;;;;;5090043;28;20205;-81
2021/08/18 10:17:49;;;;;;;4.50;3.83;;;32.30;99.90;;;;;;5103663;28;20200;-78
2021/08/18 10:20:22;;;;;;;3.80;3.50;;;33.60;99.90;;;;;;5105096;28;20258;-78
2021/08/18 10:22:59;;;;;;;4.80;3.50;;;33.80;99.20;;;;;;5108970;28;20212;-77
2021/08/18 10:25:39;;;;;;;4.35;3.95;;;34.90;98.20;;;;;;5103104;28;20743;-78
2021/08/18 10:28:08;;;;;;;4.75;3.70;;;35.50;98.30;;;;;;5102198;28;20199;-77
2021/08/18 10:30:48;;;;;;;4.20;3.65;;;35.20;97.80;;;;;;5099620;28;20254;-76
2021/08/18 10:33:53;;;;;;;5.97;4.15;;;35.40;98.00;;;;;;5106653;28;20200;-78
2021/08/18 10:36:55;;;;;;;4.10;3.53;;;33.70;97.80;;;;;;5108580;28;20208;-76
2021/08/18 10:39:30;;;;;;;3.72;3.42;;;28.90;99.80;;;;;;5107771;28;20210;-77
2021/08/18 10:41:58;;;;;;;6.85;3.75;;;27.00;99.90;;;;;;5109024;28;20231;-79
2021/08/18 10:44:34;;;;;;;6.13;3.90;;;25.60;99.90;;;;;;5103009;28;20213;-80
2021/08/18 10:47:22;;;;;;;3.55;3.25;;;25.00;99.90;;;;;;5106894;28;20287;-79
2021/08/18 10:49:51;;;;;;;6.78;4.22;;;24.50;99.90;;;;;;5106591;28;20197;-78
2021/08/18 10:52:51;;;;;;;3.95;3.35;;;23.60;99.90;;;;;;5107641;28;20258;-76
2021/08/18 10:55:28;;;;;;;4.45;3.80;;;23.10;99.90;;;;;;5108497;28;20205;-80
2021/08/18 10:57:55;;;;;;;3.75;3.45;;;23.40;99.90;;;;;;5105516;28;20200;-79
2021/08/18 11:00:23;;;;;;;4.90;3.70;;;23.30;99.90;;;;;;5106056;28;20200;-76
2021/08/18 11:03:02;;;;;;;4.68;3.40;;;23.30;99.90;;;;;;5104416;28;20278;-77
2021/08/18 11:05:42;;;;;;;6.03;4.10;;;23.50;99.90;;;;;;5106481;28;20205;-80
2021/08/18 11:08:11;;;;;;;6.20;4.10;;;23.50;99.90;;;;;;5108726;28;20751;-79
2021/08/18 11:10:43;;;;;;;6.57;4.47;;;23.20;99.90;;;;;;5110824;28;20258;-75
2021/08/18 11:13:13;;;;;;;4.68;4.07;;;23.50;99.90;;;;;;5108328;28;20232;-80
2021/08/18 11:15:56;;;;;;;6.55;5.05;;;23.40;99.90;;;;;;5103315;28;20647;-79
2021/08/18 11:18:24;;;;;;;6.07;4.57;;;22.90;99.90;;;;;;5104068;28;20250;-75
2021/08/18 11:20:54;;;;;;;3.90;3.50;;;23.40;99.90;;;;;;5106228;28;20684;-74
2021/08/18 11:23:27;;;;;;;4.82;3.78;;;23.30;99.90;;;;;;5101830;28;20213;-79
2021/08/18 11:25:58;;;;;;;4.03;3.63;;;23.30;99.90;;;;;;5107739;28;20196;-77
2021/08/18 11:28:28;;;;;;;4.97;3.63;;;23.50;99.90;;;;;;5111439;28;20284;-75
2021/08/18 11:30:57;;;;;;;5.75;4.53;;;23.80;99.90;;;;;;5110801;28;20308;-77
2021/08/18 11:33:26;;;;;;;4.30;3.90;;;23.40;99.90;;;;;;5111320;28;20299;-77
2021/08/18 11:35:53;;;;;;;6.18;4.15;;;23.40;99.90;;;;;;5100400;28;20872;-77
2021/08/18 11:38:20;;;;;;;4.20;3.72;;;23.30;99.90;;;;;;5105574;28;20213;-76
2021/08/18 11:40:49;;;;;;;6.68;4.07;;;23.10;99.90;;;;;;5102381;28;20205;-80
2021/08/18 11:43:17;;;;;;;5.55;4.20;;;23.20;99.90;;;;;;5107732;28;20631;-78
2021/08/18 11:45:51;;;;;;;7.18;3.80;;;23.40;99.90;;;;;;5105287;28;20660;-81
2021/08/18 11:48:22;;;;;;;8.07;4.20;;;23.10;99.90;;;;;;5081728;28;20573;-80
2021/08/18 11:50:56;;;;;;;7.43;5.10;;;23.20;99.90;;;;;;5092945;28;20209;-81
2021/08/18 11:53:24;;;;;;;6.97;4.30;;;23.20;99.90;;;;;;5092266;28;20660;-76
2021/08/18 11:56:00;;;;;;;5.55;3.70;;;23.60;99.90;;;;;;5092671;28;20202;-76
2021/08/18 11:58:33;;;;;;;5.10;4.25;;;23.70;99.90;;;;;;5092581;28;20213;-79
2021/08/18 12:01:02;;;;;;;4.20;3.83;;;22.70;99.90;;;;;;5092558;28;20207;-80
2021/08/18 12:03:30;;;;;;;5.57;3.70;;;23.10;99.90;;;;;;5094640;28;20312;-77
2021/08/18 12:06:04;;;;;;;4.65;4.03;;;23.20;99.90;;;;;;5099692;28;20197;-75
2021/08/18 12:08:39;;;;;;;5.55;4.07;;;23.20;99.90;;;;;;5097611;28;20205;-80
2021/08/18 12:11:08;;;;;;;5.50;3.88;;;23.60;99.90;;;;;;5092846;28;20200;-78
2021/08/18 12:13:46;;;;;;;5.03;3.67;;;23.50;99.90;;;;;;5098719;28;20206;-80
2021/08/18 12:16:32;;;;;;;4.80;3.83;;;23.50;99.90;;;;;;5093970;28;20204;-78
2021/08/18 12:19:16;;;;;;;6.97;4.18;;;23.60;99.90;;;;;;5091703;28;20259;-77
2021/08/18 12:21:45;;;;;;;9.27;4.53;;;23.80;99.90;;;;;;5091754;28;20252;-79
2021/08/18 12:24:14;;;;;;;4.40;3.33;;;23.70;99.90;;;;;;5078735;28;20252;-76
2021/08/18 12:26:45;;;;;;;5.32;3.58;;;23.80;99.90;;;;;;5091462;28;20584;-76
2021/08/18 12:29:17;;;;;;;5.20;4.70;;;23.90;99.90;;;;;;5082048;28;20202;-77
2021/08/18 12:31:55;;;;;;;6.78;4.03;;;23.60;99.90;;;;;;5091889;28;20504;-75
2021/08/18 12:34:33;;;;;;;4.82;4.05;;;23.70;99.90;;;;;;5092062;28;20208;-74
2021/08/18 12:37:03;;;;;;;5.05;4.30;;;23.50;99.90;;;;;;5109182;28;20201;-74
2021/08/18 12:39:35;;;;;;;6.20;4.07;;;23.80;99.90;;;;;;5103165;28;20258;-76
2021/08/18 12:42:02;;;;;;;4.72;4.13;;;23.70;99.90;;;;;;5109022;28;20670;-76
2021/08/18 12:44:31;;;;;;;6.10;4.30;;;23.70;99.90;;;;;;5106815;27;20345;-75
2021/08/18 12:47:07;;;;;;;4.97;3.67;;;23.80;99.90;;;;;;5110167;28;20209;-75
2021/08/18 12:49:35;;;;;;;3.78;3.45;;;23.90;99.90;;;;;;5108677;28;20201;-74
2021/08/18 12:52:06;;;;;;;6.97;4.32;;;23.60;99.90;;;;;;5110929;28;20243;-74
2021/08/18 12:54:34;;;;;;;3.78;3.30;;;23.30;99.90;;;;;;5100839;28;20205;-75